Terminal Aerodrome Forecast
Issued by NWS Upton, NY

Home | Current Version | Previous Version | Text Only | Print | Product List | Glossary On
Versions: 1 2 3 4 5 6 7 8 9 10 11 12 13 14 15 16 17 18 19 20 21 22 23 24 25 26 27 28 29
000
FTUS41 KOKX 242149 AAB
TAFISP
TAF AMD
KISP 242149Z 2422/2518 13007KT P6SM SCT050 BKN080
     FM250000 09008KT P6SM -RA BKN050
     FM250300 08009KT 6SM -RA BR SCT015 OVC040
     FM250500 06010KT 4SM -RA BR SCT007 BKN012
     FM250800 06013G21KT 2SM -RA BR BKN007 OVC010
     FM251400 08016G24KT 1SM -RA BR OVC006=

USA.gov is the U.S. government's official web portal to all federal, state and local government web resources and services.